sensor_id;sensor_type;location;lat;lon;timestamp;P1;durP1;ratioP1;P2;durP2;ratioP2
11344;SDS011;5727;42.600;23.028;2023-04-06T00:01:44;9.53;;;8.57;;
11344;SDS011;5727;42.600;23.028;2023-04-06T00:04:11;9.47;;;8.53;;
11344;SDS011;5727;42.600;23.028;2023-04-06T00:06:38;11.57;;;9.07;;
11344;SDS011;5727;42.600;23.028;2023-04-06T00:09:05;9.43;;;8.50;;
11344;SDS011;5727;42.600;23.028;2023-04-06T00:11:33;10.00;;;9.10;;
11344;SDS011;5727;42.600;23.028;2023-04-06T00:14:00;9.40;;;8.50;;
11344;SDS011;5727;42.600;23.028;2023-04-06T00:16:27;10.57;;;9.67;;
11344;SDS011;5727;42.600;23.028;2023-04-06T00:18:54;9.70;;;8.73;;
11344;SDS011;5727;42.600;23.028;2023-04-06T00:21:20;10.07;;;9.07;;
11344;SDS011;5727;42.600;23.028;2023-04-06T00:23:47;12.23;;;10.30;;
11344;SDS011;5727;42.600;23.028;2023-04-06T00:26:14;10.97;;;9.73;;
11344;SDS011;5727;42.600;23.028;2023-04-06T00:28:42;10.70;;;9.77;;
11344;SDS011;5727;42.600;23.028;2023-04-06T00:31:08;11.73;;;10.17;;
11344;SDS011;5727;42.600;23.028;2023-04-06T00:33:35;13.70;;;11.07;;
11344;SDS011;5727;42.600;23.028;2023-04-06T00:36:02;11.83;;;10.60;;
11344;SDS011;5727;42.600;23.028;2023-04-06T00:38:30;13.07;;;10.73;;
11344;SDS011;5727;42.600;23.028;2023-04-06T00:40:57;17.03;;;11.03;;
11344;SDS011;5727;42.600;23.028;2023-04-06T00:43:24;15.40;;;11.40;;
11344;SDS011;5727;42.600;23.028;2023-04-06T00:45:52;13.90;;;12.27;;
11344;SDS011;5727;42.600;23.028;2023-04-06T00:48:19;15.33;;;11.07;;
11344;SDS011;5727;42.600;23.028;2023-04-06T00:50:46;15.53;;;11.10;;
11344;SDS011;5727;42.600;23.028;2023-04-06T00:53:13;23.13;;;13.23;;
11344;SDS011;5727;42.600;23.028;2023-04-06T00:55:39;22.07;;;12.83;;
11344;SDS011;5727;42.600;23.028;2023-04-06T00:58:06;15.10;;;11.20;;
11344;SDS011;5727;42.600;23.028;2023-04-06T01:00:33;11.73;;;10.17;;
11344;SDS011;5727;42.600;23.028;2023-04-06T01:03:01;10.23;;;9.23;;
11344;SDS011;5727;42.600;23.028;2023-04-06T01:05:32;14.87;;;10.47;;
11344;SDS011;5727;42.600;23.028;2023-04-06T01:08:00;15.40;;;11.30;;
11344;SDS011;5727;42.600;23.028;2023-04-06T01:10:27;15.00;;;11.47;;
11344;SDS011;5727;42.600;23.028;2023-04-06T01:12:54;20.77;;;12.37;;
11344;SDS011;5727;42.600;23.028;2023-04-06T01:15:21;17.00;;;11.30;;
11344;SDS011;5727;42.600;23.028;2023-04-06T01:17:48;16.63;;;12.20;;
11344;SDS011;5727;42.600;23.028;2023-04-06T01:20:16;17.60;;;11.17;;
11344;SDS011;5727;42.600;23.028;2023-04-06T01:22:45;10.93;;;9.80;;
11344;SDS011;5727;42.600;23.028;2023-04-06T01:25:11;10.53;;;9.43;;
11344;SDS011;5727;42.600;23.028;2023-04-06T01:27:38;10.53;;;9.50;;
11344;SDS011;5727;42.600;23.028;2023-04-06T01:30:05;12.73;;;9.73;;
11344;SDS011;5727;42.600;23.028;2023-04-06T01:32:33;12.23;;;10.17;;
11344;SDS011;5727;42.600;23.028;2023-04-06T01:35:00;9.97;;;9.07;;
11344;SDS011;5727;42.600;23.028;2023-04-06T01:37:27;9.97;;;9.03;;
11344;SDS011;5727;42.600;23.028;2023-04-06T01:39:56;10.10;;;9.10;;
11344;SDS011;5727;42.600;23.028;2023-04-06T01:42:23;11.07;;;9.90;;
11344;SDS011;5727;42.600;23.028;2023-04-06T01:44:51;9.67;;;8.67;;
11344;SDS011;5727;42.600;23.028;2023-04-06T01:47:18;10.10;;;9.10;;
11344;SDS011;5727;42.600;23.028;2023-04-06T01:49:44;9.57;;;8.67;;
11344;SDS011;5727;42.600;23.028;2023-04-06T01:52:11;9.53;;;8.57;;
11344;SDS011;5727;42.600;23.028;2023-04-06T01:54:39;8.53;;;7.83;;
11344;SDS011;5727;42.600;23.028;2023-04-06T01:57:07;9.30;;;8.40;;
11344;SDS011;5727;42.600;23.028;2023-04-06T01:59:33;9.20;;;8.30;;
11344;SDS011;5727;42.600;23.028;2023-04-06T02:02:00;9.50;;;8.50;;
11344;SDS011;5727;42.600;23.028;2023-04-06T02:04:27;9.00;;;8.10;;
11344;SDS011;5727;42.600;23.028;2023-04-06T02:06:54;9.53;;;8.73;;
11344;SDS011;5727;42.600;23.028;2023-04-06T02:09:20;9.97;;;8.90;;
11344;SDS011;5727;42.600;23.028;2023-04-06T02:11:47;9.47;;;8.63;;
11344;SDS011;5727;42.600;23.028;2023-04-06T02:14:15;9.77;;;8.87;;
11344;SDS011;5727;42.600;23.028;2023-04-06T02:16:42;9.77;;;8.83;;
11344;SDS011;5727;42.600;23.028;2023-04-06T02:19:09;10.10;;;9.10;;
11344;SDS011;5727;42.600;23.028;2023-04-06T02:21:35;9.40;;;8.50;;
11344;SDS011;5727;42.600;23.028;2023-04-06T02:24:02;8.80;;;8.00;;
11344;SDS011;5727;42.600;23.028;2023-04-06T02:26:29;9.57;;;8.47;;
11344;SDS011;5727;42.600;23.028;2023-04-06T02:28:56;9.80;;;8.87;;
11344;SDS011;5727;42.600;23.028;2023-04-06T02:31:25;9.60;;;8.70;;
11344;SDS011;5727;42.600;23.028;2023-04-06T02:33:52;8.97;;;8.17;;
11344;SDS011;5727;42.600;23.028;2023-04-06T02:36:19;9.43;;;8.53;;
11344;SDS011;5727;42.600;23.028;2023-04-06T02:38:46;9.37;;;8.47;;
11344;SDS011;5727;42.600;23.028;2023-04-06T02:41:12;8.80;;;8.00;;
11344;SDS011;5727;42.600;23.028;2023-04-06T02:43:39;8.93;;;8.03;;
11344;SDS011;5727;42.600;23.028;2023-04-06T02:46:06;8.70;;;8.00;;
11344;SDS011;5727;42.600;23.028;2023-04-06T02:48:34;10.30;;;9.40;;
11344;SDS011;5727;42.600;23.028;2023-04-06T02:51:02;8.77;;;7.90;;
11344;SDS011;5727;42.600;23.028;2023-04-06T02:53:29;8.97;;;8.17;;
11344;SDS011;5727;42.600;23.028;2023-04-06T02:55:56;10.17;;;9.10;;
11344;SDS011;5727;42.600;23.028;2023-04-06T02:58:22;8.93;;;8.17;;
11344;SDS011;5727;42.600;23.028;2023-04-06T03:00:49;9.63;;;8.63;;
11344;SDS011;5727;42.600;23.028;2023-04-06T03:03:16;10.30;;;8.90;;
11344;SDS011;5727;42.600;23.028;2023-04-06T03:05:44;9.30;;;8.37;;
11344;SDS011;5727;42.600;23.028;2023-04-06T03:08:11;8.70;;;7.77;;
11344;SDS011;5727;42.600;23.028;2023-04-06T03:10:37;9.23;;;8.27;;
11344;SDS011;5727;42.600;23.028;2023-04-06T03:13:04;10.03;;;8.57;;
11344;SDS011;5727;42.600;23.028;2023-04-06T03:15:31;9.60;;;8.60;;
11344;SDS011;5727;42.600;23.028;2023-04-06T03:17:58;9.70;;;8.80;;
11344;SDS011;5727;42.600;23.028;2023-04-06T03:20:24;10.03;;;8.80;;
11344;SDS011;5727;42.600;23.028;2023-04-06T03:22:52;9.53;;;8.63;;
11344;SDS011;5727;42.600;23.028;2023-04-06T03:25:19;9.80;;;8.80;;
11344;SDS011;5727;42.600;23.028;2023-04-06T03:27:46;10.60;;;9.50;;
11344;SDS011;5727;42.600;23.028;2023-04-06T03:30:13;8.83;;;7.93;;
11344;SDS011;5727;42.600;23.028;2023-04-06T03:32:41;9.00;;;8.10;;
11344;SDS011;5727;42.600;23.028;2023-04-06T03:35:08;9.00;;;8.10;;
11344;SDS011;5727;42.600;23.028;2023-04-06T03:37:35;10.10;;;9.10;;
11344;SDS011;5727;42.600;23.028;2023-04-06T03:40:04;9.07;;;8.17;;
11344;SDS011;5727;42.600;23.028;2023-04-06T03:42:31;8.57;;;7.67;;
11344;SDS011;5727;42.600;23.028;2023-04-06T03:44:58;9.00;;;8.03;;
11344;SDS011;5727;42.600;23.028;2023-04-06T03:47:25;9.10;;;8.20;;
11344;SDS011;5727;42.600;23.028;2023-04-06T03:49:52;9.13;;;8.23;;
11344;SDS011;5727;42.600;23.028;2023-04-06T03:52:18;8.87;;;8.07;;
11344;SDS011;5727;42.600;23.028;2023-04-06T03:54:47;9.97;;;8.97;;
11344;SDS011;5727;42.600;23.028;2023-04-06T03:57:16;9.57;;;8.47;;
11344;SDS011;5727;42.600;23.028;2023-04-06T03:59:43;10.33;;;8.53;;
11344;SDS011;5727;42.600;23.028;2023-04-06T04:02:10;10.30;;;8.77;;
11344;SDS011;5727;42.600;23.028;2023-04-06T04:04:36;9.13;;;8.23;;
11344;SDS011;5727;42.600;23.028;2023-04-06T04:07:03;8.07;;;7.37;;
11344;SDS011;5727;42.600;23.028;2023-04-06T04:09:30;9.60;;;8.60;;
11344;SDS011;5727;42.600;23.028;2023-04-06T04:11:56;10.57;;;9.47;;
11344;SDS011;5727;42.600;23.028;2023-04-06T04:14:25;9.93;;;8.13;;
11344;SDS011;5727;42.600;23.028;2023-04-06T04:16:52;8.83;;;8.03;;
11344;SDS011;5727;42.600;23.028;2023-04-06T04:19:18;9.30;;;8.40;;
11344;SDS011;5727;42.600;23.028;2023-04-06T04:21:45;11.43;;;9.53;;
11344;SDS011;5727;42.600;23.028;2023-04-06T04:24:13;10.23;;;8.87;;
11344;SDS011;5727;42.600;23.028;2023-04-06T04:26:39;12.30;;;8.93;;
11344;SDS011;5727;42.600;23.028;2023-04-06T04:29:06;12.53;;;10.23;;
11344;SDS011;5727;42.600;23.028;2023-04-06T04:31:35;11.03;;;9.23;;
11344;SDS011;5727;42.600;23.028;2023-04-06T04:34:01;11.30;;;9.77;;
11344;SDS011;5727;42.600;23.028;2023-04-06T04:36:29;10.30;;;8.67;;
11344;SDS011;5727;42.600;23.028;2023-04-06T04:38:55;11.23;;;9.97;;
11344;SDS011;5727;42.600;23.028;2023-04-06T04:41:22;9.13;;;8.23;;
11344;SDS011;5727;42.600;23.028;2023-04-06T04:43:49;10.33;;;9.33;;
11344;SDS011;5727;42.600;23.028;2023-04-06T04:46:16;10.17;;;9.17;;
11344;SDS011;5727;42.600;23.028;2023-04-06T04:48:44;10.80;;;9.50;;
11344;SDS011;5727;42.600;23.028;2023-04-06T04:51:11;9.47;;;8.43;;
11344;SDS011;5727;42.600;23.028;2023-04-06T04:53:37;10.13;;;9.07;;
11344;SDS011;5727;42.600;23.028;2023-04-06T04:56:05;9.77;;;8.77;;
11344;SDS011;5727;42.600;23.028;2023-04-06T04:58:32;9.80;;;8.63;;
11344;SDS011;5727;42.600;23.028;2023-04-06T05:00:58;9.77;;;8.83;;
11344;SDS011;5727;42.600;23.028;2023-04-06T05:03:25;11.70;;;9.03;;
11344;SDS011;5727;42.600;23.028;2023-04-06T05:05:54;11.60;;;10.37;;
11344;SDS011;5727;42.600;23.028;2023-04-06T05:08:21;10.13;;;8.93;;
11344;SDS011;5727;42.600;23.028;2023-04-06T05:10:47;12.83;;;9.30;;
11344;SDS011;5727;42.600;23.028;2023-04-06T05:13:14;10.60;;;9.37;;
11344;SDS011;5727;42.600;23.028;2023-04-06T05:15:41;9.57;;;8.27;;
11344;SDS011;5727;42.600;23.028;2023-04-06T05:18:08;10.00;;;8.90;;
11344;SDS011;5727;42.600;23.028;2023-04-06T05:20:36;8.87;;;7.97;;
11344;SDS011;5727;42.600;23.028;2023-04-06T05:23:04;9.23;;;8.27;;
11344;SDS011;5727;42.600;23.028;2023-04-06T05:25:31;10.23;;;8.43;;
11344;SDS011;5727;42.600;23.028;2023-04-06T05:27:58;9.77;;;8.77;;
11344;SDS011;5727;42.600;23.028;2023-04-06T05:30:25;10.70;;;7.93;;
11344;SDS011;5727;42.600;23.028;2023-04-06T05:32:52;10.63;;;9.10;;
11344;SDS011;5727;42.600;23.028;2023-04-06T05:35:19;11.23;;;9.83;;
11344;SDS011;5727;42.600;23.028;2023-04-06T05:37:45;11.10;;;9.77;;
11344;SDS011;5727;42.600;23.028;2023-04-06T05:40:13;10.90;;;9.13;;
11344;SDS011;5727;42.600;23.028;2023-04-06T05:42:40;10.90;;;8.87;;
11344;SDS011;5727;42.600;23.028;2023-04-06T05:45:08;10.47;;;9.43;;
11344;SDS011;5727;42.600;23.028;2023-04-06T05:47:41;9.43;;;8.53;;
11344;SDS011;5727;42.600;23.028;2023-04-06T05:50:09;9.90;;;8.90;;
11344;SDS011;5727;42.600;23.028;2023-04-06T05:52:36;12.20;;;9.70;;
11344;SDS011;5727;42.600;23.028;2023-04-06T05:55:03;9.60;;;8.63;;
11344;SDS011;5727;42.600;23.028;2023-04-06T05:57:32;9.10;;;8.30;;
11344;SDS011;5727;42.600;23.028;2023-04-06T05:59:59;10.57;;;8.60;;
11344;SDS011;5727;42.600;23.028;2023-04-06T06:02:25;9.63;;;8.63;;
11344;SDS011;5727;42.600;23.028;2023-04-06T06:07:37;10.17;;;8.83;;
11344;SDS011;5727;42.600;23.028;2023-04-06T06:10:05;10.13;;;8.30;;
11344;SDS011;5727;42.600;23.028;2023-04-06T06:12:33;9.57;;;8.47;;
11344;SDS011;5727;42.600;23.028;2023-04-06T06:15:00;8.70;;;7.80;;
11344;SDS011;5727;42.600;23.028;2023-04-06T06:17:27;9.70;;;8.70;;
11344;SDS011;5727;42.600;23.028;2023-04-06T06:19:54;10.63;;;9.23;;
11344;SDS011;5727;42.600;23.028;2023-04-06T06:22:20;15.33;;;11.03;;
11344;SDS011;5727;42.600;23.028;2023-04-06T06:24:47;10.23;;;7.97;;
11344;SDS011;5727;42.600;23.028;2023-04-06T06:27:14;9.33;;;8.40;;
11344;SDS011;5727;42.600;23.028;2023-04-06T06:29:43;10.97;;;9.80;;
11344;SDS011;5727;42.600;23.028;2023-04-06T06:32:09;13.40;;;9.73;;
11344;SDS011;5727;42.600;23.028;2023-04-06T06:34:36;11.17;;;9.97;;
11344;SDS011;5727;42.600;23.028;2023-04-06T06:37:03;12.87;;;9.80;;
11344;SDS011;5727;42.600;23.028;2023-04-06T06:39:30;11.77;;;9.90;;
11344;SDS011;5727;42.600;23.028;2023-04-06T06:41:56;9.87;;;8.10;;
11344;SDS011;5727;42.600;23.028;2023-04-06T06:44:25;8.97;;;8.07;;
11344;SDS011;5727;42.600;23.028;2023-04-06T06:46:54;9.23;;;7.97;;
11344;SDS011;5727;42.600;23.028;2023-04-06T06:49:21;9.17;;;7.63;;
11344;SDS011;5727;42.600;23.028;2023-04-06T06:51:48;9.23;;;8.30;;
11344;SDS011;5727;42.600;23.028;2023-04-06T06:54:15;8.87;;;7.97;;
11344;SDS011;5727;42.600;23.028;2023-04-06T06:56:42;10.27;;;8.10;;
11344;SDS011;5727;42.600;23.028;2023-04-06T06:59:08;7.50;;;6.80;;
11344;SDS011;5727;42.600;23.028;2023-04-06T07:01:35;12.33;;;8.43;;
11344;SDS011;5727;42.600;23.028;2023-04-06T07:04:04;9.63;;;8.63;;
11344;SDS011;5727;42.600;23.028;2023-04-06T07:06:31;9.47;;;8.50;;
11344;SDS011;5727;42.600;23.028;2023-04-06T07:08:57;8.90;;;8.00;;
11344;SDS011;5727;42.600;23.028;2023-04-06T07:11:24;7.90;;;7.20;;
11344;SDS011;5727;42.600;23.028;2023-04-06T07:13:51;9.00;;;7.97;;
11344;SDS011;5727;42.600;23.028;2023-04-06T07:16:18;9.13;;;7.93;;
11344;SDS011;5727;42.600;23.028;2023-04-06T07:18:44;8.83;;;8.00;;
11344;SDS011;5727;42.600;23.028;2023-04-06T07:21:13;8.83;;;7.67;;
11344;SDS011;5727;42.600;23.028;2023-04-06T07:23:39;8.03;;;7.23;;
11344;SDS011;5727;42.600;23.028;2023-04-06T07:26:06;9.63;;;7.63;;
11344;SDS011;5727;42.600;23.028;2023-04-06T07:28:33;7.37;;;6.73;;
11344;SDS011;5727;42.600;23.028;2023-04-06T07:31:00;8.60;;;7.67;;
11344;SDS011;5727;42.600;23.028;2023-04-06T07:33:26;8.30;;;7.50;;
11344;SDS011;5727;42.600;23.028;2023-04-06T07:35:55;6.67;;;6.07;;
11344;SDS011;5727;42.600;23.028;2023-04-06T07:38:23;8.67;;;7.40;;
11344;SDS011;5727;42.600;23.028;2023-04-06T07:40:50;7.80;;;7.00;;
11344;SDS011;5727;42.600;23.028;2023-04-06T07:43:17;8.37;;;7.53;;
11344;SDS011;5727;42.600;23.028;2023-04-06T07:45:44;9.10;;;7.27;;
11344;SDS011;5727;42.600;23.028;2023-04-06T07:48:11;7.67;;;6.90;;
11344;SDS011;5727;42.600;23.028;2023-04-06T07:50:37;10.53;;;8.17;;
11344;SDS011;5727;42.600;23.028;2023-04-06T07:53:04;9.87;;;8.57;;
11344;SDS011;5727;42.600;23.028;2023-04-06T07:55:33;11.07;;;8.93;;
11344;SDS011;5727;42.600;23.028;2023-04-06T07:58:00;9.63;;;8.63;;
11344;SDS011;5727;42.600;23.028;2023-04-06T08:00:26;9.17;;;8.20;;
11344;SDS011;5727;42.600;23.028;2023-04-06T08:02:53;11.37;;;7.53;;
11344;SDS011;5727;42.600;23.028;2023-04-06T08:05:20;11.40;;;9.27;;
11344;SDS011;5727;42.600;23.028;2023-04-06T08:07:47;9.60;;;8.70;;
11344;SDS011;5727;42.600;23.028;2023-04-06T08:10:13;10.97;;;8.63;;
11344;SDS011;5727;42.600;23.028;2023-04-06T08:12:42;10.57;;;7.50;;
11344;SDS011;5727;42.600;23.028;2023-04-06T08:15:09;9.47;;;8.57;;
11344;SDS011;5727;42.600;23.028;2023-04-06T08:17:36;8.27;;;7.43;;
11344;SDS011;5727;42.600;23.028;2023-04-06T08:20:03;9.73;;;8.73;;
11344;SDS011;5727;42.600;23.028;2023-04-06T08:22:30;11.43;;;9.13;;
11344;SDS011;5727;42.600;23.028;2023-04-06T08:24:57;9.53;;;8.53;;
11344;SDS011;5727;42.600;23.028;2023-04-06T08:27:23;10.73;;;8.77;;
11344;SDS011;5727;42.600;23.028;2023-04-06T08:29:52;11.47;;;8.77;;
11344;SDS011;5727;42.600;23.028;2023-04-06T08:32:19;9.80;;;8.80;;
11344;SDS011;5727;42.600;23.028;2023-04-06T08:34:46;9.57;;;8.30;;
11344;SDS011;5727;42.600;23.028;2023-04-06T08:37:13;10.23;;;8.73;;
11344;SDS011;5727;42.600;23.028;2023-04-06T08:39:39;9.07;;;7.83;;
11344;SDS011;5727;42.600;23.028;2023-04-06T08:42:10;9.53;;;7.70;;
11344;SDS011;5727;42.600;23.028;2023-04-06T08:44:39;10.73;;;9.10;;
11344;SDS011;5727;42.600;23.028;2023-04-06T08:47:08;12.07;;;9.07;;
11344;SDS011;5727;42.600;23.028;2023-04-06T08:49:36;8.57;;;7.77;;
11344;SDS011;5727;42.600;23.028;2023-04-06T08:52:05;8.60;;;7.70;;
11344;SDS011;5727;42.600;23.028;2023-04-06T08:54:33;12.47;;;8.90;;
11344;SDS011;5727;42.600;23.028;2023-04-06T08:57:00;8.53;;;7.70;;
11344;SDS011;5727;42.600;23.028;2023-04-06T08:59:28;9.13;;;7.87;;
11344;SDS011;5727;42.600;23.028;2023-04-06T09:01:55;9.30;;;8.13;;
11344;SDS011;5727;42.600;23.028;2023-04-06T09:04:27;10.03;;;8.90;;
11344;SDS011;5727;42.600;23.028;2023-04-06T09:06:53;8.30;;;7.47;;
11344;SDS011;5727;42.600;23.028;2023-04-06T09:09:20;10.13;;;8.10;;
11344;SDS011;5727;42.600;23.028;2023-04-06T09:11:50;8.60;;;7.80;;
11344;SDS011;5727;42.600;23.028;2023-04-06T09:14:32;9.73;;;8.53;;
11344;SDS011;5727;42.600;23.028;2023-04-06T09:16:59;8.53;;;7.67;;
11344;SDS011;5727;42.600;23.028;2023-04-06T09:19:28;9.20;;;8.27;;
11344;SDS011;5727;42.600;23.028;2023-04-06T09:22:00;10.60;;;8.70;;
11344;SDS011;5727;42.600;23.028;2023-04-06T09:24:38;9.10;;;8.20;;
11344;SDS011;5727;42.600;23.028;2023-04-06T09:27:06;10.07;;;9.07;;
11344;SDS011;5727;42.600;23.028;2023-04-06T09:29:32;8.60;;;7.70;;
11344;SDS011;5727;42.600;23.028;2023-04-06T09:32:02;10.27;;;8.47;;
11344;SDS011;5727;42.600;23.028;2023-04-06T09:34:31;7.93;;;7.17;;
11344;SDS011;5727;42.600;23.028;2023-04-06T09:36:58;12.03;;;9.00;;
11344;SDS011;5727;42.600;23.028;2023-04-06T09:39:25;10.57;;;8.27;;
11344;SDS011;5727;42.600;23.028;2023-04-06T09:41:53;9.47;;;8.57;;
11344;SDS011;5727;42.600;23.028;2023-04-06T09:44:20;7.30;;;6.73;;
11344;SDS011;5727;42.600;23.028;2023-04-06T09:46:49;9.33;;;8.27;;
11344;SDS011;5727;42.600;23.028;2023-04-06T09:49:19;8.23;;;7.37;;
11344;SDS011;5727;42.600;23.028;2023-04-06T09:51:48;8.80;;;7.90;;
11344;SDS011;5727;42.600;23.028;2023-04-06T09:54:22;9.77;;;8.10;;
11344;SDS011;5727;42.600;23.028;2023-04-06T09:56:50;9.87;;;8.23;;
11344;SDS011;5727;42.600;23.028;2023-04-06T09:59:25;11.30;;;9.13;;
11344;SDS011;5727;42.600;23.028;2023-04-06T10:02:03;8.90;;;7.80;;
11344;SDS011;5727;42.600;23.028;2023-04-06T10:04:33;7.83;;;7.17;;
11344;SDS011;5727;42.600;23.028;2023-04-06T10:07:07;8.53;;;7.63;;
11344;SDS011;5727;42.600;23.028;2023-04-06T10:09:37;10.20;;;7.93;;
11344;SDS011;5727;42.600;23.028;2023-04-06T10:12:04;8.97;;;7.97;;
11344;SDS011;5727;42.600;23.028;2023-04-06T10:14:33;8.57;;;7.63;;
11344;SDS011;5727;42.600;23.028;2023-04-06T10:17:02;8.30;;;7.60;;
11344;SDS011;5727;42.600;23.028;2023-04-06T10:19:31;8.50;;;7.60;;
11344;SDS011;5727;42.600;23.028;2023-04-06T10:22:04;8.67;;;7.87;;
11344;SDS011;5727;42.600;23.028;2023-04-06T10:24:35;13.73;;;11.40;;
11344;SDS011;5727;42.600;23.028;2023-04-06T10:27:02;14.20;;;12.77;;
11344;SDS011;5727;42.600;23.028;2023-04-06T10:29:41;14.77;;;12.77;;
11344;SDS011;5727;42.600;23.028;2023-04-06T10:32:10;9.13;;;7.67;;
11344;SDS011;5727;42.600;23.028;2023-04-06T10:34:37;8.10;;;7.30;;
11344;SDS011;5727;42.600;23.028;2023-04-06T10:37:13;9.80;;;8.80;;
11344;SDS011;5727;42.600;23.028;2023-04-06T10:39:49;9.00;;;8.10;;
11344;SDS011;5727;42.600;23.028;2023-04-06T10:42:23;10.67;;;9.57;;
11344;SDS011;5727;42.600;23.028;2023-04-06T10:44:50;8.80;;;7.83;;
11344;SDS011;5727;42.600;23.028;2023-04-06T10:47:17;8.77;;;7.97;;
11344;SDS011;5727;42.600;23.028;2023-04-06T10:49:44;11.00;;;9.73;;
11344;SDS011;5727;42.600;23.028;2023-04-06T10:52:11;11.13;;;9.77;;
11344;SDS011;5727;42.600;23.028;2023-04-06T10:54:40;10.30;;;8.97;;
11344;SDS011;5727;42.600;23.028;2023-04-06T10:57:11;11.00;;;9.90;;
11344;SDS011;5727;42.600;23.028;2023-04-06T10:59:41;9.03;;;8.13;;
11344;SDS011;5727;42.600;23.028;2023-04-06T11:02:18;9.67;;;8.77;;
11344;SDS011;5727;42.600;23.028;2023-04-06T11:04:53;9.27;;;8.33;;
11344;SDS011;5727;42.600;23.028;2023-04-06T11:07:22;9.03;;;8.23;;
11344;SDS011;5727;42.600;23.028;2023-04-06T11:09:49;8.73;;;7.93;;
11344;SDS011;5727;42.600;23.028;2023-04-06T11:12:22;9.17;;;8.30;;
11344;SDS011;5727;42.600;23.028;2023-04-06T11:14:53;10.20;;;8.47;;
11344;SDS011;5727;42.600;23.028;2023-04-06T11:17:26;9.93;;;8.97;;
11344;SDS011;5727;42.600;23.028;2023-04-06T11:19:53;10.53;;;8.70;;
11344;SDS011;5727;42.600;23.028;2023-04-06T11:22:20;10.60;;;8.77;;
11344;SDS011;5727;42.600;23.028;2023-04-06T11:24:46;8.53;;;7.73;;
11344;SDS011;5727;42.600;23.028;2023-04-06T11:27:13;9.57;;;8.67;;
11344;SDS011;5727;42.600;23.028;2023-04-06T11:29:42;9.37;;;8.40;;
11344;SDS011;5727;42.600;23.028;2023-04-06T11:32:11;8.80;;;8.00;;
11344;SDS011;5727;42.600;23.028;2023-04-06T11:34:38;9.43;;;8.50;;
11344;SDS011;5727;42.600;23.028;2023-04-06T11:37:07;9.90;;;9.00;;
11344;SDS011;5727;42.600;23.028;2023-04-06T11:39:37;9.30;;;8.40;;
11344;SDS011;5727;42.600;23.028;2023-04-06T11:42:05;8.43;;;7.63;;
11344;SDS011;5727;42.600;23.028;2023-04-06T11:44:33;8.17;;;7.47;;
11344;SDS011;5727;42.600;23.028;2023-04-06T11:47:03;8.40;;;7.53;;
11344;SDS011;5727;42.600;23.028;2023-04-06T11:49:31;8.47;;;7.33;;
11344;SDS011;5727;42.600;23.028;2023-04-06T11:51:59;7.67;;;6.83;;
11344;SDS011;5727;42.600;23.028;2023-04-06T11:54:30;9.17;;;8.27;;
11344;SDS011;5727;42.600;23.028;2023-04-06T11:56:58;7.13;;;6.43;;
11344;SDS011;5727;42.600;23.028;2023-04-06T11:59:25;8.23;;;6.90;;
11344;SDS011;5727;42.600;23.028;2023-04-06T12:01:52;7.73;;;7.00;;
11344;SDS011;5727;42.600;23.028;2023-04-06T12:04:20;7.80;;;7.10;;
11344;SDS011;5727;42.600;23.028;2023-04-06T12:06:47;8.00;;;7.20;;
11344;SDS011;5727;42.600;23.028;2023-04-06T12:09:14;8.20;;;7.40;;
11344;SDS011;5727;42.600;23.028;2023-04-06T12:11:41;8.07;;;7.27;;
11344;SDS011;5727;42.600;23.028;2023-04-06T12:14:08;7.47;;;6.87;;
11344;SDS011;5727;42.600;23.028;2023-04-06T12:16:35;8.40;;;7.60;;
11344;SDS011;5727;42.600;23.028;2023-04-06T12:19:02;8.77;;;7.93;;
11344;SDS011;5727;42.600;23.028;2023-04-06T12:21:31;7.90;;;7.20;;
11344;SDS011;5727;42.600;23.028;2023-04-06T12:23:58;8.63;;;7.83;;
11344;SDS011;5727;42.600;23.028;2023-04-06T12:26:25;9.07;;;8.10;;
11344;SDS011;5727;42.600;23.028;2023-04-06T12:28:52;8.27;;;7.60;;
11344;SDS011;5727;42.600;23.028;2023-04-06T12:31:20;7.27;;;6.57;;
11344;SDS011;5727;42.600;23.028;2023-04-06T12:33:50;7.60;;;6.90;;
11344;SDS011;5727;42.600;23.028;2023-04-06T12:36:18;7.50;;;6.50;;
11344;SDS011;5727;42.600;23.028;2023-04-06T12:38:48;7.13;;;6.43;;
11344;SDS011;5727;42.600;23.028;2023-04-06T12:41:15;7.53;;;6.90;;
11344;SDS011;5727;42.600;23.028;2023-04-06T12:43:43;7.20;;;6.60;;
11344;SDS011;5727;42.600;23.028;2023-04-06T12:46:10;7.83;;;7.03;;
11344;SDS011;5727;42.600;23.028;2023-04-06T12:48:38;8.37;;;7.53;;
11344;SDS011;5727;42.600;23.028;2023-04-06T12:51:05;8.17;;;7.37;;
11344;SDS011;5727;42.600;23.028;2023-04-06T12:53:32;7.93;;;7.23;;
11344;SDS011;5727;42.600;23.028;2023-04-06T12:56:02;8.03;;;7.33;;
11344;SDS011;5727;42.600;23.028;2023-04-06T12:58:37;8.00;;;7.20;;
11344;SDS011;5727;42.600;23.028;2023-04-06T13:01:05;8.10;;;7.30;;
11344;SDS011;5727;42.600;23.028;2023-04-06T13:03:33;8.57;;;7.77;;
11344;SDS011;5727;42.600;23.028;2023-04-06T13:06:00;8.77;;;7.87;;
11344;SDS011;5727;42.600;23.028;2023-04-06T13:08:27;8.03;;;7.27;;
11344;SDS011;5727;42.600;23.028;2023-04-06T13:10:54;7.93;;;7.13;;
11344;SDS011;5727;42.600;23.028;2023-04-06T13:13:23;8.10;;;7.40;;
11344;SDS011;5727;42.600;23.028;2023-04-06T13:15:51;8.60;;;7.80;;
11344;SDS011;5727;42.600;23.028;2023-04-06T13:18:18;8.10;;;7.30;;
11344;SDS011;5727;42.600;23.028;2023-04-06T13:20:46;8.27;;;7.37;;
11344;SDS011;5727;42.600;23.028;2023-04-06T13:23:13;8.00;;;7.30;;
11344;SDS011;5727;42.600;23.028;2023-04-06T13:25:40;7.93;;;7.23;;
11344;SDS011;5727;42.600;23.028;2023-04-06T13:28:07;7.83;;;7.17;;
11344;SDS011;5727;42.600;23.028;2023-04-06T13:30:36;7.90;;;7.13;;
11344;SDS011;5727;42.600;23.028;2023-04-06T13:33:03;8.20;;;7.40;;
11344;SDS011;5727;42.600;23.028;2023-04-06T13:35:31;7.77;;;7.17;;
11344;SDS011;5727;42.600;23.028;2023-04-06T13:38:00;7.43;;;6.70;;
11344;SDS011;5727;42.600;23.028;2023-04-06T13:40:27;8.30;;;7.13;;
11344;SDS011;5727;42.600;23.028;2023-04-06T13:42:54;9.37;;;8.27;;
11344;SDS011;5727;42.600;23.028;2023-04-06T13:45:21;8.80;;;7.83;;
11344;SDS011;5727;42.600;23.028;2023-04-06T13:47:49;8.70;;;7.97;;
11344;SDS011;5727;42.600;23.028;2023-04-06T13:50:16;8.70;;;7.90;;
11344;SDS011;5727;42.600;23.028;2023-04-06T13:52:42;10.67;;;7.80;;
11344;SDS011;5727;42.600;23.028;2023-04-06T13:55:09;8.53;;;7.50;;
11344;SDS011;5727;42.600;23.028;2023-04-06T13:57:36;7.93;;;7.23;;
11344;SDS011;5727;42.600;23.028;2023-04-06T14:00:03;10.27;;;7.97;;
11344;SDS011;5727;42.600;23.028;2023-04-06T14:02:31;8.37;;;7.53;;
11344;SDS011;5727;42.600;23.028;2023-04-06T14:04:59;7.00;;;6.43;;
11344;SDS011;5727;42.600;23.028;2023-04-06T14:07:26;7.20;;;6.50;;
11344;SDS011;5727;42.600;23.028;2023-04-06T14:09:53;8.37;;;7.57;;
11344;SDS011;5727;42.600;23.028;2023-04-06T14:12:20;7.80;;;7.20;;
11344;SDS011;5727;42.600;23.028;2023-04-06T14:14:46;9.70;;;6.80;;
11344;SDS011;5727;42.600;23.028;2023-04-06T14:17:13;8.10;;;7.30;;
11344;SDS011;5727;42.600;23.028;2023-04-06T14:19:40;7.33;;;6.63;;
11344;SDS011;5727;42.600;23.028;2023-04-06T14:22:09;7.67;;;6.97;;
11344;SDS011;5727;42.600;23.028;2023-04-06T14:24:36;8.47;;;7.50;;
11344;SDS011;5727;42.600;23.028;2023-04-06T14:27:03;8.47;;;7.67;;
11344;SDS011;5727;42.600;23.028;2023-04-06T14:29:30;7.87;;;7.17;;
11344;SDS011;5727;42.600;23.028;2023-04-06T14:31:56;8.87;;;7.20;;
11344;SDS011;5727;42.600;23.028;2023-04-06T14:34:25;7.40;;;6.57;;
11344;SDS011;5727;42.600;23.028;2023-04-06T14:36:51;7.53;;;6.70;;
11344;SDS011;5727;42.600;23.028;2023-04-06T14:39:19;7.20;;;6.57;;
11344;SDS011;5727;42.600;23.028;2023-04-06T14:41:46;7.67;;;6.87;;
11344;SDS011;5727;42.600;23.028;2023-04-06T14:44:13;8.10;;;7.30;;
11344;SDS011;5727;42.600;23.028;2023-04-06T14:46:41;7.93;;;7.23;;
11344;SDS011;5727;42.600;23.028;2023-04-06T14:49:08;8.53;;;7.47;;